Time;durP1;ratioP1;P1;durP2;ratioP2;P2;SDS_P1;SDS_P2;PMS_P1;PMS_P2;Temp;Humidity;BMP_temperature;BMP_pressure;BME280_temperature;BME280_humidity;BME280_pressure;Samples;Min_cycle;Max_cycle;Signal;HPM_P1;HPM_P2
2022/09/25 00:01:23;;;;;;;1.05;0.73;;;13.70;99.90;;;;;;4986074;28;20484;-73
2022/09/25 00:03:50;;;;;;;2.08;0.75;;;13.80;99.90;;;;;;4984290;28;20019;-73
2022/09/25 00:06:24;;;;;;;1.77;1.00;;;13.80;99.90;;;;;;4985506;28;20026;-72
2022/09/25 00:08:53;;;;;;;2.85;1.10;;;13.90;99.90;;;;;;4986294;28;20026;-71
2022/09/25 00:11:26;;;;;;;2.70;0.90;;;13.90;99.90;;;;;;4985583;28;20023;-73
2022/09/25 00:13:55;;;;;;;2.17;0.93;;;14.00;99.90;;;;;;4982931;28;20408;-76
2022/09/25 00:16:26;;;;;;;1.23;0.77;;;14.20;99.90;;;;;;4984621;28;20118;-72
2022/09/25 00:21:41;;;;;;;2.75;0.80;;;14.30;99.90;;;;;;4985576;28;20042;-72
2022/09/25 00:24:12;;;;;;;1.02;0.73;;;14.40;99.90;;;;;;4984113;28;20019;-72
2022/09/25 00:26:42;;;;;;;1.70;0.68;;;14.60;99.90;;;;;;4984600;28;20018;-71
2022/09/25 00:29:15;;;;;;;0.73;0.50;;;14.60;99.90;;;;;;4985477;28;20545;-72
2022/09/25 00:31:43;;;;;;;1.23;0.90;;;14.60;99.90;;;;;;4985733;28;20027;-77
2022/09/25 00:34:11;;;;;;;1.92;0.80;;;14.60;99.90;;;;;;4984082;28;20487;-76
2022/09/25 00:36:39;;;;;;;5.65;0.82;;;14.70;99.90;;;;;;4984714;28;20494;-73
2022/09/25 00:39:07;;;;;;;1.30;0.70;;;14.60;99.90;;;;;;4985889;28;20121;-72
2022/09/25 00:41:35;;;;;;;3.80;1.17;;;14.60;99.90;;;;;;4984503;28;20023;-73
2022/09/25 00:44:23;;;;;;;1.85;0.70;;;14.60;99.90;;;;;;4983116;28;20023;-73
2022/09/25 00:46:51;;;;;;;5.93;0.90;;;14.80;99.90;;;;;;4983690;28;20054;-73
2022/09/25 00:49:23;;;;;;;1.38;0.80;;;14.90;99.90;;;;;;4983987;28;20069;-76
2022/09/25 00:51:59;;;;;;;1.20;0.77;;;15.00;99.90;;;;;;4982970;28;20510;-75
2022/09/25 00:54:32;;;;;;;3.22;0.80;;;15.00;99.90;;;;;;4985500;28;20087;-76
2022/09/25 00:57:04;;;;;;;1.77;0.70;;;15.10;99.90;;;;;;4984322;28;20030;-71
2022/09/25 00:59:37;;;;;;;0.93;0.70;;;15.20;99.90;;;;;;4983077;28;20486;-73
2022/09/25 01:02:06;;;;;;;1.50;0.65;;;15.10;99.90;;;;;;4983662;28;20010;-72
2022/09/25 01:04:37;;;;;;;0.80;0.60;;;15.30;99.90;;;;;;4983577;28;20022;-74
2022/09/25 01:07:07;;;;;;;0.93;0.70;;;15.40;99.90;;;;;;4983541;28;20102;-74
2022/09/25 01:09:36;;;;;;;1.13;0.70;;;15.50;99.90;;;;;;4984713;28;20391;-75
2022/09/25 01:12:04;;;;;;;1.05;0.60;;;15.60;99.90;;;;;;4984945;28;20391;-71
2022/09/25 01:14:33;;;;;;;1.17;0.70;;;15.60;99.90;;;;;;4983068;28;20026;-73
2022/09/25 01:17:34;;;;;;;5.72;0.77;;;15.70;99.90;;;;;;4983758;28;20117;-74
2022/09/25 01:20:52;;;;;;;0.68;0.55;;;15.80;99.90;;;;;;4967802;28;20031;-76
2022/09/25 01:23:26;;;;;;;1.33;0.82;;;15.70;99.90;;;;;;4952244;28;20038;-74
2022/09/25 01:26:04;;;;;;;1.17;0.68;;;15.80;99.90;;;;;;4983415;28;20026;-75
2022/09/25 01:28:50;;;;;;;1.20;0.65;;;15.90;99.90;;;;;;4982607;28;20427;-74
2022/09/25 01:31:42;;;;;;;0.95;0.60;;;15.90;99.90;;;;;;4983490;28;20054;-75
2022/09/25 01:34:25;;;;;;;2.15;0.77;;;15.90;99.90;;;;;;4984794;28;20014;-75
2022/09/25 01:37:08;;;;;;;1.42;0.60;;;16.10;99.90;;;;;;4984774;28;20042;-76
2022/09/25 01:39:43;;;;;;;0.60;0.50;;;16.20;99.90;;;;;;4984478;28;20024;-70
2022/09/25 01:42:22;;;;;;;1.38;0.90;;;16.20;99.90;;;;;;4983111;28;20472;-71
2022/09/25 01:45:24;;;;;;;0.82;0.70;;;16.20;99.90;;;;;;4983024;28;20103;-75
2022/09/25 01:47:53;;;;;;;0.40;0.40;;;16.30;99.90;;;;;;4981511;28;20110;-74
2022/09/25 01:50:42;;;;;;;1.55;0.80;;;16.40;99.90;;;;;;4984128;28;20387;-74
2022/09/25 01:53:16;;;;;;;2.63;0.70;;;16.50;99.90;;;;;;4984858;28;20085;-75
2022/09/25 01:55:48;;;;;;;2.47;0.50;;;16.60;99.90;;;;;;4984204;28;20031;-74
2022/09/25 01:58:22;;;;;;;4.60;0.57;;;16.70;99.90;;;;;;4983317;28;20034;-76
2022/09/25 02:00:58;;;;;;;0.65;0.50;;;16.70;99.90;;;;;;4982190;28;20467;-70
2022/09/25 02:03:36;;;;;;;1.85;0.60;;;16.80;99.90;;;;;;4984806;28;20499;-75
2022/09/25 02:06:08;;;;;;;1.58;0.70;;;16.90;99.90;;;;;;4982124;28;20085;-75
2022/09/25 02:08:42;;;;;;;0.80;0.60;;;16.90;99.90;;;;;;4979739;28;20101;-75
2022/09/25 02:11:11;;;;;;;1.25;0.60;;;17.20;99.90;;;;;;4977537;28;20427;-75
2022/09/25 02:13:48;;;;;;;2.60;0.80;;;17.20;99.90;;;;;;4976330;28;20034;-74
2022/09/25 02:16:24;;;;;;;0.60;0.50;;;17.30;99.90;;;;;;4978507;28;20079;-72
2022/09/25 02:21:58;;;;;;;1.08;0.60;;;17.50;99.90;;;;;;4976023;28;20053;-70
2022/09/25 02:24:29;;;;;;;1.27;0.50;;;17.50;99.90;;;;;;4978833;28;20484;-71
2022/09/25 02:26:57;;;;;;;0.70;0.50;;;17.40;99.90;;;;;;4981347;28;20033;-71
2022/09/25 02:29:25;;;;;;;0.65;0.52;;;17.60;99.90;;;;;;4982486;28;20400;-73
2022/09/25 02:32:03;;;;;;;0.70;0.50;;;17.60;99.90;;;;;;4982724;28;20022;-70
2022/09/25 02:34:32;;;;;;;1.67;0.63;;;17.60;99.90;;;;;;4983646;28;20372;-71
2022/09/25 02:37:00;;;;;;;1.02;0.63;;;17.70;99.90;;;;;;4981835;28;20069;-73
2022/09/25 02:39:30;;;;;;;0.70;0.63;;;17.80;99.90;;;;;;4983827;28;20476;-71
2022/09/25 02:42:33;;;;;;;1.60;0.70;;;17.90;99.90;;;;;;4983328;28;20022;-73
2022/09/25 02:45:19;;;;;;;1.30;0.60;;;17.90;99.90;;;;;;4982923;28;20023;-72
2022/09/25 02:48:28;;;;;;;2.13;0.60;;;17.90;99.90;;;;;;4982310;28;20105;-71
2022/09/25 02:51:11;;;;;;;2.47;0.63;;;18.10;99.90;;;;;;4984217;28;20056;-72
2022/09/25 02:53:41;;;;;;;1.15;0.63;;;18.20;99.90;;;;;;4983698;28;20034;-73
2022/09/25 02:56:30;;;;;;;1.50;0.60;;;18.10;99.90;;;;;;4976708;28;20035;-76
2022/09/25 02:59:05;;;;;;;0.90;0.63;;;18.10;99.90;;;;;;4990826;28;20042;-71
2022/09/25 03:01:37;;;;;;;1.48;0.73;;;18.10;99.90;;;;;;4993225;28;20486;-74
2022/09/25 03:04:06;;;;;;;0.70;0.57;;;18.20;99.90;;;;;;4993966;28;20035;-76
2022/09/25 03:06:35;;;;;;;0.93;0.70;;;18.30;99.90;;;;;;4993930;28;20018;-77
2022/09/25 03:09:07;;;;;;;0.70;0.40;;;18.50;99.90;;;;;;4993875;28;20038;-76
2022/09/25 03:11:42;;;;;;;2.22;0.68;;;18.50;99.90;;;;;;4993826;28;20133;-76
2022/09/25 03:14:10;;;;;;;0.90;0.47;;;18.70;99.90;;;;;;4993751;28;20018;-73
2022/09/25 03:16:49;;;;;;;1.52;0.60;;;18.70;99.90;;;;;;4986366;28;20058;-75
2022/09/25 03:19:18;;;;;;;1.60;0.82;;;18.80;99.90;;;;;;4986961;28;20026;-75
2022/09/25 03:21:47;;;;;;;1.45;0.73;;;18.70;99.90;;;;;;4985361;28;20653;-76
2022/09/25 03:24:15;;;;;;;0.82;0.65;;;18.80;99.90;;;;;;4986421;28;20025;-75
2022/09/25 03:26:44;;;;;;;0.70;0.50;;;18.80;99.90;;;;;;4986054;28;20700;-74
2022/09/25 03:29:16;;;;;;;3.83;0.60;;;18.90;99.90;;;;;;4985526;28;20026;-75
2022/09/25 03:31:44;;;;;;;0.75;0.50;;;18.90;99.90;;;;;;4985143;28;20057;-75
2022/09/25 03:34:13;;;;;;;2.45;0.60;;;19.00;99.90;;;;;;4986711;28;20026;-75
2022/09/25 03:36:41;;;;;;;0.45;0.45;;;19.00;99.90;;;;;;4986841;28;20019;-76
2022/09/25 03:39:13;;;;;;;1.27;0.60;;;19.30;99.90;;;;;;4985156;28;20073;-75
2022/09/25 03:41:42;;;;;;;0.60;0.47;;;19.30;99.90;;;;;;4985182;28;20021;-75
2022/09/25 03:44:10;;;;;;;1.70;0.50;;;19.30;99.90;;;;;;4986660;28;20041;-74
2022/09/25 03:46:38;;;;;;;0.50;0.32;;;19.20;99.90;;;;;;4986257;28;20487;-75
2022/09/25 03:49:05;;;;;;;0.40;0.25;;;19.20;99.90;;;;;;4984628;28;20022;-75
2022/09/25 03:51:34;;;;;;;0.85;0.50;;;19.20;99.90;;;;;;4986275;28;20090;-74
2022/09/25 03:54:02;;;;;;;0.50;0.40;;;19.20;99.90;;;;;;4986558;28;20027;-74
2022/09/25 03:56:31;;;;;;;0.40;0.28;;;19.30;99.90;;;;;;4985041;28;20039;-73
2022/09/25 03:58:58;;;;;;;0.57;0.35;;;19.40;99.90;;;;;;4985101;28;20072;-74
2022/09/25 04:01:27;;;;;;;1.08;0.43;;;19.50;99.40;;;;;;4986349;28;20015;-74
2022/09/25 04:03:54;;;;;;;2.33;0.75;;;19.50;99.30;;;;;;4985005;28;20026;-74
2022/09/25 04:06:24;;;;;;;0.77;0.47;;;19.60;99.90;;;;;;4989035;28;20541;-74
2022/09/25 04:08:52;;;;;;;0.40;0.30;;;19.70;99.90;;;;;;4993836;28;20022;-74
2022/09/25 04:11:22;;;;;;;1.45;0.77;;;19.70;99.70;;;;;;4993764;28;20027;-75
2022/09/25 04:13:50;;;;;;;0.50;0.40;;;19.80;97.20;;;;;;4977035;28;20026;-75
2022/09/25 04:16:19;;;;;;;0.65;0.43;;;19.90;98.30;;;;;;4992917;28;20174;-75
2022/09/25 04:18:47;;;;;;;1.17;0.60;;;20.00;97.50;;;;;;4988489;28;20082;-75
2022/09/25 04:21:15;;;;;;;1.25;0.52;;;20.00;99.00;;;;;;4982858;28;20034;-74
2022/09/25 04:24:46;;;;;;;2.55;0.50;;;19.90;99.30;;;;;;4983359;28;20084;-75
2022/09/25 04:26:30;;;;;;;1.73;0.50;;;19.90;98.80;;;;;;4982692;28;20486;-75
2022/09/25 04:29:00;;;;;;;0.95;0.50;;;20.00;95.10;;;;;;4983085;28;20105;-77
2022/09/25 04:31:31;;;;;;;0.52;0.40;;;20.10;94.10;;;;;;4982824;28;20173;-75
2022/09/25 04:33:59;;;;;;;0.52;0.50;;;20.10;94.00;;;;;;4982064;28;20014;-72
2022/09/25 04:36:27;;;;;;;0.60;0.38;;;20.10;94.70;;;;;;4981427;28;20136;-72
2022/09/25 04:38:54;;;;;;;1.27;0.65;;;20.10;94.00;;;;;;4982695;28;20070;-74
2022/09/25 04:41:21;;;;;;;1.20;0.43;;;20.20;92.00;;;;;;4983350;28;20019;-72
2022/09/25 04:43:49;;;;;;;0.98;0.47;;;20.10;93.20;;;;;;4984309;28;20488;-73
2022/09/25 04:46:16;;;;;;;1.58;0.45;;;20.10;93.00;;;;;;4984868;28;20022;-71
2022/09/25 04:48:45;;;;;;;1.48;0.60;;;20.10;94.10;;;;;;4986604;28;20030;-73
2022/09/25 04:51:12;;;;;;;0.82;0.40;;;19.90;94.50;;;;;;4983151;28;20538;-74
2022/09/25 04:53:41;;;;;;;0.50;0.40;;;19.90;90.50;;;;;;4984135;28;20038;-75
2022/09/25 04:56:12;;;;;;;1.73;0.50;;;19.80;91.70;;;;;;4983173;28;20069;-76
2022/09/25 04:58:43;;;;;;;0.93;0.57;;;19.90;94.50;;;;;;4983458;28;20036;-75
2022/09/25 05:01:10;;;;;;;1.05;0.40;;;19.70;94.20;;;;;;4982530;28;20023;-73
2022/09/25 05:03:37;;;;;;;1.30;0.60;;;19.80;93.80;;;;;;4985111;28;20030;-72
2022/09/25 05:06:05;;;;;;;0.40;0.30;;;19.80;93.10;;;;;;4985040;28;20018;-72
2022/09/25 05:08:32;;;;;;;4.00;0.55;;;19.90;95.30;;;;;;4983918;28;20030;-71
2022/09/25 05:10:59;;;;;;;0.40;0.40;;;19.90;93.90;;;;;;4983058;28;20374;-71
2022/09/25 05:13:27;;;;;;;2.60;0.45;;;20.00;94.80;;;;;;4984994;28;20427;-71
2022/09/25 05:15:55;;;;;;;1.40;0.60;;;19.90;93.90;;;;;;4983481;28;20063;-71
2022/09/25 05:18:23;;;;;;;1.55;0.70;;;19.90;90.70;;;;;;4983056;28;20430;-70
2022/09/25 05:20:54;;;;;;;0.82;0.47;;;19.90;91.50;;;;;;4984832;28;20416;-72
2022/09/25 05:23:22;;;;;;;1.85;0.70;;;19.80;92.90;;;;;;4983647;28;20026;-70
2022/09/25 05:26:02;;;;;;;0.70;0.47;;;19.60;94.40;;;;;;4983038;28;20029;-72
2022/09/25 05:28:33;;;;;;;0.77;0.50;;;19.50;91.70;;;;;;4983026;28;20488;-71
2022/09/25 05:31:04;;;;;;;0.30;0.30;;;19.60;92.10;;;;;;4983176;28;20046;-70
2022/09/25 05:33:32;;;;;;;1.77;0.60;;;19.60;92.50;;;;;;4983590;28;20022;-72
2022/09/25 05:36:05;;;;;;;2.42;0.82;;;19.60;94.00;;;;;;4983056;28;20022;-71
2022/09/25 05:38:34;;;;;;;3.08;0.73;;;19.60;99.40;;;;;;4983203;28;20035;-68
2022/09/25 05:41:06;;;;;;;0.60;0.47;;;19.40;99.90;;;;;;4983035;28;20530;-72
2022/09/25 05:43:42;;;;;;;4.38;1.23;;;19.30;99.90;;;;;;4983603;28;20058;-68
2022/09/25 05:46:10;;;;;;;0.80;0.52;;;19.20;99.90;;;;;;4982763;28;20106;-70
2022/09/25 05:48:38;;;;;;;1.83;0.77;;;19.10;99.90;;;;;;4983221;28;20041;-71
2022/09/25 05:51:05;;;;;;;1.00;0.65;;;18.90;99.90;;;;;;4984640;28;20093;-78
2022/09/25 05:53:34;;;;;;;2.30;0.60;;;18.80;99.90;;;;;;4982300;28;20033;-67
2022/09/25 05:56:04;;;;;;;1.80;0.70;;;18.80;99.90;;;;;;4985182;28;20019;-71
2022/09/25 05:58:33;;;;;;;1.67;0.70;;;18.60;99.90;;;;;;4983079;28;20095;-73
2022/09/25 06:01:05;;;;;;;5.68;0.70;;;18.50;99.90;;;;;;4983147;28;20019;-73
2022/09/25 06:03:33;;;;;;;0.80;0.60;;;18.40;99.90;;;;;;4984156;28;20510;-75
2022/09/25 06:06:01;;;;;;;2.67;0.93;;;18.30;99.90;;;;;;4984305;28;20383;-67
2022/09/25 06:08:34;;;;;;;4.30;0.70;;;18.20;99.90;;;;;;4982651;28;20015;-65
2022/09/25 06:11:02;;;;;;;2.22;0.85;;;18.20;99.90;;;;;;4982953;28;20371;-75
2022/09/25 06:13:32;;;;;;;3.80;0.77;;;18.10;99.90;;;;;;4985367;28;20088;-70
2022/09/25 06:16:00;;;;;;;2.58;0.68;;;18.00;99.90;;;;;;4985317;28;20081;-73
2022/09/25 06:18:27;;;;;;;1.33;0.90;;;17.90;99.90;;;;;;4982858;28;20564;-73
2022/09/25 06:21:05;;;;;;;2.53;1.42;;;17.90;99.90;;;;;;4983794;28;20057;-74
2022/09/25 06:23:32;;;;;;;2.08;1.00;;;17.90;99.90;;;;;;4982871;28;20109;-79
2022/09/25 06:26:05;;;;;;;4.78;0.60;;;17.80;99.90;;;;;;4985674;28;20483;-76
2022/09/25 06:28:33;;;;;;;0.90;0.68;;;17.70;99.90;;;;;;5001840;28;20030;-74
2022/09/25 06:31:02;;;;;;;1.48;0.70;;;17.60;99.90;;;;;;4988676;28;20403;-73
2022/09/25 06:33:30;;;;;;;2.90;0.68;;;17.60;99.90;;;;;;4986352;28;20109;-78
2022/09/25 06:35:59;;;;;;;1.55;0.60;;;17.50;99.90;;;;;;4986853;28;20069;-71
2022/09/25 06:38:26;;;;;;;1.88;0.90;;;17.40;99.90;;;;;;4987349;28;20034;-72
2022/09/25 06:40:54;;;;;;;1.25;0.70;;;17.40;99.90;;;;;;4988353;28;20026;-72
2022/09/25 06:43:21;;;;;;;2.00;0.90;;;17.30;99.90;;;;;;4984749;28;20054;-72
2022/09/25 06:45:49;;;;;;;1.65;0.63;;;17.20;99.90;;;;;;4985993;28;20022;-75
2022/09/25 06:48:17;;;;;;;4.45;0.85;;;17.20;99.90;;;;;;4986570;28;20029;-72
2022/09/25 06:50:58;;;;;;;1.40;0.70;;;17.10;99.90;;;;;;4987138;28;20026;-71
2022/09/25 06:53:26;;;;;;;2.13;1.00;;;17.10;99.90;;;;;;4987697;28;20019;-74
2022/09/25 06:55:58;;;;;;;2.15;0.95;;;17.00;99.90;;;;;;4986429;28;20022;-73
2022/09/25 06:58:26;;;;;;;3.50;0.80;;;17.00;99.90;;;;;;4985197;28;20027;-72
2022/09/25 07:00:56;;;;;;;1.60;0.88;;;17.00;99.90;;;;;;4987091;28;20027;-72
2022/09/25 07:06:16;;;;;;;2.65;1.05;;;16.90;99.90;;;;;;4987963;28;20422;-74
2022/09/25 07:08:44;;;;;;;1.00;0.80;;;16.80;99.90;;;;;;4987115;28;20040;-73
2022/09/25 07:11:19;;;;;;;1.98;0.93;;;16.80;99.90;;;;;;4985661;28;20019;-73
2022/09/25 07:13:53;;;;;;;2.60;0.73;;;16.70;99.90;;;;;;4985223;28;20052;-73
2022/09/25 07:16:23;;;;;;;1.83;0.98;;;16.60;99.90;;;;;;4985829;28;20038;-73
2022/09/25 07:18:52;;;;;;;4.25;0.98;;;16.60;99.90;;;;;;4989811;28;20089;-80
2022/09/25 07:21:23;;;;;;;2.78;1.00;;;16.50;99.90;;;;;;4986237;28;20033;-74
2022/09/25 07:23:51;;;;;;;1.02;0.70;;;16.40;99.90;;;;;;4985879;28;20022;-78
2022/09/25 07:26:21;;;;;;;3.53;1.10;;;16.30;99.90;;;;;;4986026;28;20431;-78
2022/09/25 07:29:03;;;;;;;2.10;1.02;;;16.30;99.90;;;;;;4985469;28;20023;-76
2022/09/25 07:31:32;;;;;;;1.33;1.10;;;16.20;99.90;;;;;;4985592;28;20041;-72
2022/09/25 07:34:07;;;;;;;1.73;0.98;;;16.10;99.90;;;;;;4987830;28;20468;-74
2022/09/25 07:36:37;;;;;;;2.03;1.00;;;16.00;99.90;;;;;;4985859;28;20480;-73
2022/09/25 07:39:05;;;;;;;2.15;0.70;;;16.00;99.90;;;;;;4985109;28;20130;-76
2022/09/25 07:41:33;;;;;;;1.77;0.90;;;16.00;99.90;;;;;;4986697;28;20022;-75
2022/09/25 07:44:00;;;;;;;2.45;0.80;;;15.90;99.90;;;;;;4986591;28;20046;-78
2022/09/25 07:46:30;;;;;;;3.67;0.90;;;15.80;99.90;;;;;;4984908;28;20030;-75
2022/09/25 07:48:57;;;;;;;1.20;0.90;;;15.70;99.90;;;;;;4985815;28;20481;-75
2022/09/25 07:51:25;;;;;;;2.13;1.08;;;15.70;99.90;;;;;;4986270;28;20034;-72
2022/09/25 07:53:52;;;;;;;2.28;1.05;;;15.60;99.90;;;;;;4985265;28;20479;-76
2022/09/25 07:56:20;;;;;;;4.70;1.02;;;15.50;99.90;;;;;;4990414;28;20041;-72
2022/09/25 07:58:47;;;;;;;3.17;1.02;;;15.50;99.90;;;;;;4994740;28;20034;-74
2022/09/25 08:01:14;;;;;;;1.13;0.60;;;15.40;99.90;;;;;;4994828;28;20030;-76
2022/09/25 08:03:42;;;;;;;3.75;0.95;;;15.40;99.90;;;;;;4995272;28;20365;-76
2022/09/25 08:06:12;;;;;;;2.88;0.85;;;15.30;99.90;;;;;;4994392;28;20022;-74
2022/09/25 08:08:43;;;;;;;3.75;1.40;;;15.20;99.90;;;;;;4994637;28;20041;-73
2022/09/25 08:11:15;;;;;;;5.03;1.02;;;15.20;99.90;;;;;;4992718;28;20475;-75
2022/09/25 08:13:44;;;;;;;4.07;1.02;;;15.20;99.90;;;;;;4991577;28;20490;-76
2022/09/25 08:16:17;;;;;;;1.80;0.90;;;15.10;99.90;;;;;;4991674;28;20345;-75
2022/09/25 08:18:46;;;;;;;2.20;1.20;;;15.00;99.90;;;;;;4991652;28;20186;-76
2022/09/25 08:21:19;;;;;;;1.63;1.00;;;15.00;99.90;;;;;;4991661;28;20072;-76
2022/09/25 08:23:51;;;;;;;2.60;1.10;;;14.90;99.90;;;;;;4991900;28;20534;-76
2022/09/25 08:26:20;;;;;;;4.85;1.65;;;14.90;99.90;;;;;;4992354;28;20026;-74
2022/09/25 08:28:49;;;;;;;1.50;0.98;;;14.90;99.90;;;;;;4993332;28;20102;-76
2022/09/25 08:31:17;;;;;;;3.33;0.90;;;14.90;99.90;;;;;;4991852;28;20092;-76
2022/09/25 08:33:46;;;;;;;1.85;1.10;;;14.80;99.90;;;;;;4993645;28;20029;-72
2022/09/25 08:36:14;;;;;;;3.60;1.50;;;14.80;99.90;;;;;;4994630;28;20374;-77
2022/09/25 08:38:42;;;;;;;4.47;1.08;;;14.70;99.90;;;;;;4995270;28;20027;-76
2022/09/25 08:41:26;;;;;;;2.95;1.45;;;14.70;99.90;;;;;;4995193;28;20125;-77
2022/09/25 08:43:57;;;;;;;3.50;1.20;;;14.60;99.90;;;;;;4995350;28;20549;-76
2022/09/25 08:49:43;;;;;;;2.63;0.90;;;14.60;99.90;;;;;;4994532;28;20113;-77
2022/09/25 08:52:17;;;;;;;3.92;1.20;;;14.50;99.90;;;;;;4995055;28;20430;-76
2022/09/25 08:54:44;;;;;;;2.50;1.20;;;14.50;99.90;;;;;;4995049;28;20073;-76
2022/09/25 08:57:36;;;;;;;1.70;0.73;;;14.40;99.90;;;;;;4994662;28;20038;-77
2022/09/25 09:00:29;;;;;;;1.33;0.68;;;14.40;99.90;;;;;;4995073;28;20486;-77
2022/09/25 09:02:58;;;;;;;2.22;0.80;;;14.40;99.90;;;;;;4994051;28;20042;-76
2022/09/25 09:05:33;;;;;;;5.47;0.88;;;14.50;99.90;;;;;;4994621;28;20034;-77
2022/09/25 09:08:07;;;;;;;2.58;1.00;;;14.40;99.90;;;;;;4995225;28;20026;-77
2022/09/25 09:10:56;;;;;;;4.90;0.90;;;14.40;99.90;;;;;;4994509;28;20057;-76
2022/09/25 09:13:50;;;;;;;2.22;1.02;;;14.40;99.90;;;;;;4994766;28;20037;-76
2022/09/25 09:16:23;;;;;;;2.13;1.30;;;14.40;99.90;;;;;;4994434;28;20459;-77
2022/09/25 09:18:51;;;;;;;4.22;1.02;;;14.30;99.90;;;;;;4993178;28;20372;-76
2022/09/25 09:21:43;;;;;;;4.65;0.95;;;14.30;99.90;;;;;;4994457;28;20050;-76
2022/09/25 09:24:11;;;;;;;1.90;0.93;;;14.30;99.90;;;;;;4994375;28;20034;-76
2022/09/25 09:26:49;;;;;;;3.55;1.25;;;14.30;99.90;;;;;;4994383;28;20022;-76
2022/09/25 09:29:24;;;;;;;3.80;1.05;;;14.20;99.90;;;;;;4994139;28;20595;-76
2022/09/25 09:32:29;;;;;;;1.92;1.23;;;14.20;99.90;;;;;;4994439;28;20062;-77
2022/09/25 09:35:23;;;;;;;4.78;1.35;;;14.10;99.90;;;;;;4986183;28;20034;-76
2022/09/25 09:37:59;;;;;;;3.65;1.30;;;14.10;99.90;;;;;;4991763;28;20403;-76
2022/09/25 09:41:02;;;;;;;4.07;0.95;;;14.10;99.90;;;;;;4994882;28;20174;-76
2022/09/25 09:43:53;;;;;;;1.95;1.10;;;14.10;99.90;;;;;;4994737;28;20034;-76
2022/09/25 09:46:47;;;;;;;4.63;2.13;;;14.10;99.90;;;;;;4994202;28;20387;-77
2022/09/25 09:49:28;;;;;;;5.65;2.60;;;14.10;99.90;;;;;;4994252;28;20052;-76
2022/09/25 09:52:33;;;;;;;6.32;2.13;;;14.10;99.90;;;;;;4994521;28;20026;-77
2022/09/25 09:55:24;;;;;;;1.80;1.00;;;14.00;99.90;;;;;;4991040;28;20165;-76
2022/09/25 09:57:58;;;;;;;8.93;1.45;;;14.00;99.90;;;;;;4994005;28;20388;-77
2022/09/25 10:00:26;;;;;;;6.55;1.58;;;14.00;99.90;;;;;;4995249;28;20455;-76
2022/09/25 10:02:58;;;;;;;3.38;1.20;;;13.90;99.90;;;;;;4997768;28;20030;-77
2022/09/25 10:05:37;;;;;;;6.18;1.67;;;13.90;99.90;;;;;;4998241;28;20157;-75
2022/09/25 10:08:04;;;;;;;4.15;2.60;;;13.90;99.90;;;;;;5010481;28;20485;-74
2022/09/25 10:10:46;;;;;;;6.28;3.08;;;13.90;99.90;;;;;;5001807;28;20026;-76
2022/09/25 10:13:24;;;;;;;5.35;2.90;;;13.90;99.90;;;;;;4995955;28;20057;-76
2022/09/25 10:15:51;;;;;;;5.43;2.67;;;13.80;99.90;;;;;;4992666;28;20018;-75
2022/09/25 10:18:21;;;;;;;5.38;3.15;;;13.80;99.90;;;;;;4995468;28;20404;-71
2022/09/25 10:20:51;;;;;;;6.32;2.90;;;13.80;99.90;;;;;;4995624;28;20068;-72
2022/09/25 10:23:48;;;;;;;4.68;2.72;;;13.80;99.90;;;;;;4995630;28;20026;-72
2022/09/25 10:26:28;;;;;;;2.88;2.20;;;13.80;99.90;;;;;;4974904;28;20037;-75
2022/09/25 10:28:57;;;;;;;2.63;1.73;;;13.80;99.90;;;;;;4995479;28;20486;-75
2022/09/25 10:31:45;;;;;;;9.00;2.60;;;13.70;99.90;;;;;;4995509;28;20042;-76
2022/09/25 10:34:20;;;;;;;3.88;2.35;;;13.50;99.90;;;;;;4995611;28;20030;-77
2022/09/25 10:36:50;;;;;;;4.05;2.05;;;13.40;99.90;;;;;;4993789;28;20034;-77
2022/09/25 10:39:38;;;;;;;2.90;1.75;;;13.40;99.90;;;;;;4995192;28;20101;-77
2022/09/25 10:42:26;;;;;;;11.07;2.60;;;13.50;99.90;;;;;;4995666;28;20104;-77
2022/09/25 10:44:56;;;;;;;8.05;1.80;;;13.50;99.90;;;;;;4995599;28;20019;-72
2022/09/25 10:50:18;;;;;;;5.83;1.70;;;13.50;99.90;;;;;;4994838;28;20030;-76
2022/09/25 10:52:59;;;;;;;4.53;1.83;;;13.50;99.90;;;;;;4996227;28;20037;-76
2022/09/25 10:55:29;;;;;;;6.07;2.78;;;13.50;99.90;;;;;;4995669;28;20061;-76
2022/09/25 10:58:12;;;;;;;5.20;2.28;;;13.50;99.90;;;;;;4995215;28;20033;-76
2022/09/25 11:00:53;;;;;;;5.20;2.15;;;13.50;99.90;;;;;;4993511;28;20529;-76
2022/09/25 11:03:25;;;;;;;5.72;2.25;;;13.50;99.90;;;;;;4994104;28;20035;-74
2022/09/25 11:06:00;;;;;;;4.60;1.73;;;13.50;99.90;;;;;;4995856;28;20033;-75
2022/09/25 11:08:32;;;;;;;5.07;2.60;;;13.40;99.90;;;;;;4995788;28;20023;-76
2022/09/25 11:11:02;;;;;;;3.38;2.08;;;13.40;99.90;;;;;;4992303;28;20475;-76
2022/09/25 11:13:37;;;;;;;3.72;1.90;;;13.40;99.90;;;;;;4994792;28;20065;-76
2022/09/25 11:16:08;;;;;;;4.60;2.17;;;13.50;99.90;;;;;;4993051;28;20024;-77
2022/09/25 11:18:37;;;;;;;2.90;1.90;;;13.40;99.90;;;;;;4994580;28;20088;-76
2022/09/25 11:21:15;;;;;;;6.35;2.63;;;13.50;99.90;;;;;;4994787;28;20026;-76
2022/09/25 11:23:57;;;;;;;5.80;3.53;;;13.50;99.90;;;;;;4994790;28;20101;-76
2022/09/25 11:26:37;;;;;;;5.10;3.42;;;13.40;99.90;;;;;;4994555;28;20026;-76
2022/09/25 11:29:14;;;;;;;3.72;2.13;;;13.40;99.90;;;;;;4994395;28;20420;-77
2022/09/25 11:31:47;;;;;;;6.57;2.70;;;13.40;99.90;;;;;;4995224;28;20030;-77
2022/09/25 11:34:52;;;;;;;4.75;2.80;;;13.40;99.90;;;;;;4995369;28;20022;-77
2022/09/25 11:37:26;;;;;;;8.00;3.58;;;13.40;99.90;;;;;;4994467;28;20541;-76
2022/09/25 11:43:11;;;;;;;4.82;2.28;;;13.30;99.90;;;;;;4995181;28;20045;-76
2022/09/25 11:45:55;;;;;;;3.20;2.03;;;13.30;99.90;;;;;;4993780;28;20467;-72
2022/09/25 11:48:37;;;;;;;5.45;2.13;;;13.30;99.90;;;;;;4994777;28;20031;-76
2022/09/25 11:51:50;;;;;;;4.70;2.03;;;13.20;99.90;;;;;;4994693;28;20483;-76
2022/09/25 11:54:46;;;;;;;4.38;1.98;;;13.20;99.90;;;;;;4994194;28;20035;-77
2022/09/25 11:57:31;;;;;;;3.63;1.52;;;13.20;99.90;;;;;;4992020;28;20039;-74
2022/09/25 12:00:14;;;;;;;2.55;1.45;;;13.10;99.90;;;;;;4991436;28;20161;-77
2022/09/25 12:02:50;;;;;;;6.72;2.45;;;13.10;99.90;;;;;;4995044;28;20356;-73
2022/09/25 12:05:24;;;;;;;9.68;2.15;;;13.10;99.90;;;;;;4995153;28;20019;-72
2022/09/25 12:07:57;;;;;;;4.60;2.13;;;13.10;99.90;;;;;;4994848;28;20619;-75
2022/09/25 12:10:35;;;;;;;6.35;2.30;;;13.10;99.90;;;;;;4994813;28;20037;-73
2022/09/25 12:13:07;;;;;;;4.70;1.90;;;13.10;99.90;;;;;;4994763;28;20507;-79
2022/09/25 12:15:48;;;;;;;4.80;2.15;;;13.00;99.90;;;;;;4993573;28;20026;-77
2022/09/25 12:18:24;;;;;;;9.57;1.95;;;13.00;99.90;;;;;;4993610;28;20050;-80
2022/09/25 12:21:04;;;;;;;7.80;1.92;;;13.00;99.90;;;;;;4994607;28;20027;-79
2022/09/25 12:23:44;;;;;;;5.18;2.20;;;13.00;99.90;;;;;;4993875;28;20490;-80
2022/09/25 12:26:31;;;;;;;5.43;2.38;;;13.00;99.90;;;;;;4978270;28;20056;-79
2022/09/25 12:29:02;;;;;;;4.35;1.80;;;13.00;99.90;;;;;;4977002;28;20475;-79
2022/09/25 12:31:33;;;;;;;5.60;2.03;;;13.00;99.90;;;;;;4975984;28;20114;-78
2022/09/25 12:34:27;;;;;;;4.55;2.28;;;12.90;99.90;;;;;;4976643;28;20025;-79
2022/09/25 12:37:11;;;;;;;6.22;2.25;;;12.90;99.90;;;;;;4961508;28;20047;-80
2022/09/25 12:39:48;;;;;;;3.15;1.90;;;13.00;99.90;;;;;;4977265;28;20018;-79
2022/09/25 12:42:22;;;;;;;7.78;2.30;;;13.00;99.90;;;;;;4978246;28;20018;-81
2022/09/25 12:45:01;;;;;;;5.03;2.40;;;12.90;99.90;;;;;;4976157;28;20026;-79
2022/09/25 12:47:32;;;;;;;3.95;2.30;;;12.90;99.90;;;;;;4977006;28;20022;-76
2022/09/25 12:50:08;;;;;;;5.85;2.00;;;12.90;99.90;;;;;;4975506;28;20027;-79
2022/09/25 12:52:43;;;;;;;3.90;1.90;;;12.90;99.90;;;;;;4975432;28;20011;-79
2022/09/25 12:55:24;;;;;;;6.30;3.53;;;12.90;99.90;;;;;;4977462;28;20069;-76
2022/09/25 12:58:17;;;;;;;3.90;3.30;;;12.90;99.90;;;;;;4979241;28;20074;-77
2022/09/25 13:00:49;;;;;;;4.20;3.80;;;12.90;99.90;;;;;;4976059;28;20435;-78
2022/09/25 13:03:27;;;;;;;4.95;3.55;;;12.80;99.90;;;;;;4975901;28;20176;-78
2022/09/25 13:06:37;;;;;;;8.35;3.53;;;12.80;99.90;;;;;;4975479;28;20061;-77
2022/09/25 13:09:28;;;;;;;3.63;2.80;;;12.80;99.90;;;;;;4969443;28;20035;-78
2022/09/25 13:12:07;;;;;;;6.50;2.38;;;12.80;99.90;;;;;;4976987;28;20510;-78
2022/09/25 13:14:55;;;;;;;2.72;1.63;;;12.90;99.90;;;;;;4977907;28;20019;-78
2022/09/25 13:17:23;;;;;;;3.88;1.70;;;12.90;99.90;;;;;;4975937;28;20034;-79
2022/09/25 13:19:51;;;;;;;1.85;1.38;;;12.80;99.90;;;;;;4976437;28;20019;-78
2022/09/25 13:22:23;;;;;;;4.30;1.98;;;12.80;99.90;;;;;;4977102;28;20467;-78
2022/09/25 13:25:14;;;;;;;2.47;1.50;;;12.80;99.90;;;;;;4975066;28;20058;-79
2022/09/25 13:27:45;;;;;;;5.97;1.88;;;12.80;99.90;;;;;;4974467;28;20023;-78
2022/09/25 13:30:27;;;;;;;5.25;2.13;;;12.80;99.90;;;;;;4974033;28;20034;-78
2022/09/25 13:33:02;;;;;;;6.03;2.15;;;12.80;99.90;;;;;;4976469;28;20022;-78
2022/09/25 13:35:33;;;;;;;3.88;1.85;;;12.80;99.90;;;;;;4976217;28;20019;-78
2022/09/25 13:41:12;;;;;;;3.47;1.83;;;12.80;99.90;;;;;;4968143;28;20030;-78
2022/09/25 13:43:40;;;;;;;4.30;1.65;;;12.70;99.90;;;;;;4993783;28;20033;-79
2022/09/25 13:46:32;;;;;;;3.35;1.60;;;12.70;99.90;;;;;;4991272;28;20109;-76